sensor_id;sensor_type;location;lat;lon;timestamp;temperature;humidity
23271;DHT22;11804;51.118;17.058;2023-12-22T00:00:26;6.20;99.90
23271;DHT22;11804;51.118;17.058;2023-12-22T00:02:54;6.10;99.90
23271;DHT22;11804;51.118;17.058;2023-12-22T00:05:21;6.20;99.90
23271;DHT22;11804;51.118;17.058;2023-12-22T00:07:49;6.20;99.90
23271;DHT22;11804;51.118;17.058;2023-12-22T00:10:16;6.20;99.90
23271;DHT22;11804;51.118;17.058;2023-12-22T00:12:44;6.10;99.90
23271;DHT22;11804;51.118;17.058;2023-12-22T00:15:12;6.10;99.90
23271;DHT22;11804;51.118;17.058;2023-12-22T00:17:39;6.10;99.90
23271;DHT22;11804;51.118;17.058;2023-12-22T00:20:07;6.00;99.90
23271;DHT22;11804;51.118;17.058;2023-12-22T00:22:37;6.00;99.90
23271;DHT22;11804;51.118;17.058;2023-12-22T00:25:05;5.90;99.90
23271;DHT22;11804;51.118;17.058;2023-12-22T00:27:34;5.90;99.90
23271;DHT22;11804;51.118;17.058;2023-12-22T00:30:02;5.80;99.90
23271;DHT22;11804;51.118;17.058;2023-12-22T00:32:30;5.90;99.90
23271;DHT22;11804;51.118;17.058;2023-12-22T00:34:57;5.90;99.90
23271;DHT22;11804;51.118;17.058;2023-12-22T00:37:25;5.90;99.90
23271;DHT22;11804;51.118;17.058;2023-12-22T00:39:52;5.80;99.90
23271;DHT22;11804;51.118;17.058;2023-12-22T00:42:20;5.90;99.90
23271;DHT22;11804;51.118;17.058;2023-12-22T00:44:47;5.80;99.90
23271;DHT22;11804;51.118;17.058;2023-12-22T00:47:15;5.80;99.90
23271;DHT22;11804;51.118;17.058;2023-12-22T00:49:42;5.70;99.90
23271;DHT22;11804;51.118;17.058;2023-12-22T00:52:10;5.60;99.90
23271;DHT22;11804;51.118;17.058;2023-12-22T00:54:37;5.60;99.90
23271;DHT22;11804;51.118;17.058;2023-12-22T00:57:05;5.70;99.90
23271;DHT22;11804;51.118;17.058;2023-12-22T00:59:33;5.70;99.90
23271;DHT22;11804;51.118;17.058;2023-12-22T01:02:00;5.60;99.90
23271;DHT22;11804;51.118;17.058;2023-12-22T01:04:28;5.60;99.90
23271;DHT22;11804;51.118;17.058;2023-12-22T01:06:58;5.60;99.90
23271;DHT22;11804;51.118;17.058;2023-12-22T01:09:26;5.50;99.90
23271;DHT22;11804;51.118;17.058;2023-12-22T01:11:53;5.50;99.90
23271;DHT22;11804;51.118;17.058;2023-12-22T01:14:21;5.50;99.90
23271;DHT22;11804;51.118;17.058;2023-12-22T01:16:48;5.40;99.90
23271;DHT22;11804;51.118;17.058;2023-12-22T01:19:16;5.40;99.90
23271;DHT22;11804;51.118;17.058;2023-12-22T01:21:43;5.40;99.90
23271;DHT22;11804;51.118;17.058;2023-12-22T01:24:11;5.50;99.90
23271;DHT22;11804;51.118;17.058;2023-12-22T01:26:39;5.50;99.90
23271;DHT22;11804;51.118;17.058;2023-12-22T01:29:06;5.50;99.90
23271;DHT22;11804;51.118;17.058;2023-12-22T01:31:34;5.50;99.90
23271;DHT22;11804;51.118;17.058;2023-12-22T01:34:02;5.50;99.90
23271;DHT22;11804;51.118;17.058;2023-12-22T01:36:29;5.40;99.90
23271;DHT22;11804;51.118;17.058;2023-12-22T01:38:57;5.40;99.90
23271;DHT22;11804;51.118;17.058;2023-12-22T01:41:25;5.40;99.90
23271;DHT22;11804;51.118;17.058;2023-12-22T01:43:52;5.30;99.90
23271;DHT22;11804;51.118;17.058;2023-12-22T01:46:20;5.30;99.90
23271;DHT22;11804;51.118;17.058;2023-12-22T01:48:48;5.30;99.90
23271;DHT22;11804;51.118;17.058;2023-12-22T01:51:16;5.30;99.90
23271;DHT22;11804;51.118;17.058;2023-12-22T01:53:45;5.30;99.90
23271;DHT22;11804;51.118;17.058;2023-12-22T01:56:13;5.30;99.90
23271;DHT22;11804;51.118;17.058;2023-12-22T01:58:41;5.30;99.90
23271;DHT22;11804;51.118;17.058;2023-12-22T02:01:09;5.30;99.90
23271;DHT22;11804;51.118;17.058;2023-12-22T02:03:37;5.20;99.90
23271;DHT22;11804;51.118;17.058;2023-12-22T02:06:05;5.30;99.90
23271;DHT22;11804;51.118;17.058;2023-12-22T02:08:33;5.20;99.90
23271;DHT22;11804;51.118;17.058;2023-12-22T02:11:01;5.20;99.90
23271;DHT22;11804;51.118;17.058;2023-12-22T02:13:29;5.20;99.90
23271;DHT22;11804;51.118;17.058;2023-12-22T02:16:01;5.20;99.90
23271;DHT22;11804;51.118;17.058;2023-12-22T02:18:31;5.20;99.90
23271;DHT22;11804;51.118;17.058;2023-12-22T02:20:58;5.20;99.90
23271;DHT22;11804;51.118;17.058;2023-12-22T02:23:25;5.20;99.90
23271;DHT22;11804;51.118;17.058;2023-12-22T02:25:57;5.20;99.90
23271;DHT22;11804;51.118;17.058;2023-12-22T02:28:24;5.10;99.90
23271;DHT22;11804;51.118;17.058;2023-12-22T02:31:09;5.10;99.90
23271;DHT22;11804;51.118;17.058;2023-12-22T02:33:35;4.90;99.90
23271;DHT22;11804;51.118;17.058;2023-12-22T02:36:04;4.80;99.90
23271;DHT22;11804;51.118;17.058;2023-12-22T02:38:34;4.70;99.90
23271;DHT22;11804;51.118;17.058;2023-12-22T02:41:03;4.60;99.90
23271;DHT22;11804;51.118;17.058;2023-12-22T02:43:30;4.50;99.90
23271;DHT22;11804;51.118;17.058;2023-12-22T02:45:58;4.40;99.90
23271;DHT22;11804;51.118;17.058;2023-12-22T02:48:26;4.30;99.90
23271;DHT22;11804;51.118;17.058;2023-12-22T02:50:53;4.20;99.90
23271;DHT22;11804;51.118;17.058;2023-12-22T02:53:21;4.10;99.90
23271;DHT22;11804;51.118;17.058;2023-12-22T02:55:48;4.10;99.90
23271;DHT22;11804;51.118;17.058;2023-12-22T02:58:16;4.00;99.90
23271;DHT22;11804;51.118;17.058;2023-12-22T03:00:43;4.00;99.90
23271;DHT22;11804;51.118;17.058;2023-12-22T03:03:12;4.00;99.90
23271;DHT22;11804;51.118;17.058;2023-12-22T03:05:40;4.00;99.90
23271;DHT22;11804;51.118;17.058;2023-12-22T03:08:07;4.00;99.90
23271;DHT22;11804;51.118;17.058;2023-12-22T03:10:35;4.00;99.90
23271;DHT22;11804;51.118;17.058;2023-12-22T03:13:03;4.10;99.90
23271;DHT22;11804;51.118;17.058;2023-12-22T03:15:30;4.10;99.90
23271;DHT22;11804;51.118;17.058;2023-12-22T03:17:58;4.20;99.90
23271;DHT22;11804;51.118;17.058;2023-12-22T03:20:25;4.30;97.90
23271;DHT22;11804;51.118;17.058;2023-12-22T03:22:53;4.30;96.60
23271;DHT22;11804;51.118;17.058;2023-12-22T03:25:20;4.30;96.30
23271;DHT22;11804;51.118;17.058;2023-12-22T03:27:48;4.30;96.20
23271;DHT22;11804;51.118;17.058;2023-12-22T03:30:15;4.30;97.90
23271;DHT22;11804;51.118;17.058;2023-12-22T03:32:44;4.30;99.80
23271;DHT22;11804;51.118;17.058;2023-12-22T03:35:12;4.20;99.90
23271;DHT22;11804;51.118;17.058;2023-12-22T03:37:39;4.10;99.90
23271;DHT22;11804;51.118;17.058;2023-12-22T03:40:08;4.10;99.90
23271;DHT22;11804;51.118;17.058;2023-12-22T03:42:36;4.00;99.90
23271;DHT22;11804;51.118;17.058;2023-12-22T03:45:04;3.90;99.90
23271;DHT22;11804;51.118;17.058;2023-12-22T03:47:32;3.90;99.90
23271;DHT22;11804;51.118;17.058;2023-12-22T03:50:00;3.80;99.90
23271;DHT22;11804;51.118;17.058;2023-12-22T03:52:27;3.80;99.90
23271;DHT22;11804;51.118;17.058;2023-12-22T03:54:55;3.80;99.90
23271;DHT22;11804;51.118;17.058;2023-12-22T03:57:23;3.70;99.90
23271;DHT22;11804;51.118;17.058;2023-12-22T03:59:50;3.80;99.90
23271;DHT22;11804;51.118;17.058;2023-12-22T04:02:18;3.80;99.90
23271;DHT22;11804;51.118;17.058;2023-12-22T04:04:46;3.90;99.90
23271;DHT22;11804;51.118;17.058;2023-12-22T04:07:13;3.90;99.90
23271;DHT22;11804;51.118;17.058;2023-12-22T04:09:41;4.00;99.90
23271;DHT22;11804;51.118;17.058;2023-12-22T04:12:08;4.00;99.90
23271;DHT22;11804;51.118;17.058;2023-12-22T04:14:36;4.10;99.90
23271;DHT22;11804;51.118;17.058;2023-12-22T04:17:05;4.10;99.90
23271;DHT22;11804;51.118;17.058;2023-12-22T04:19:33;4.10;99.90
23271;DHT22;11804;51.118;17.058;2023-12-22T04:22:00;4.10;99.90
23271;DHT22;11804;51.118;17.058;2023-12-22T04:24:28;4.20;99.90
23271;DHT22;11804;51.118;17.058;2023-12-22T04:26:55;4.20;99.90
23271;DHT22;11804;51.118;17.058;2023-12-22T04:29:23;4.30;99.90
23271;DHT22;11804;51.118;17.058;2023-12-22T04:31:51;4.30;99.90
23271;DHT22;11804;51.118;17.058;2023-12-22T04:34:18;4.30;99.90
23271;DHT22;11804;51.118;17.058;2023-12-22T04:36:46;4.30;99.90
23271;DHT22;11804;51.118;17.058;2023-12-22T04:39:14;4.20;99.90
23271;DHT22;11804;51.118;17.058;2023-12-22T04:41:41;4.20;99.90
23271;DHT22;11804;51.118;17.058;2023-12-22T04:44:09;4.20;99.90
23271;DHT22;11804;51.118;17.058;2023-12-22T04:46:36;4.20;99.90
23271;DHT22;11804;51.118;17.058;2023-12-22T04:49:04;4.20;99.90
23271;DHT22;11804;51.118;17.058;2023-12-22T04:51:31;4.20;99.90
23271;DHT22;11804;51.118;17.058;2023-12-22T04:53:59;4.30;99.60
23271;DHT22;11804;51.118;17.058;2023-12-22T04:56:27;4.30;98.30
23271;DHT22;11804;51.118;17.058;2023-12-22T04:58:54;4.30;97.80
23271;DHT22;11804;51.118;17.058;2023-12-22T05:01:22;4.30;98.60
23271;DHT22;11804;51.118;17.058;2023-12-22T05:03:49;4.30;98.60
23271;DHT22;11804;51.118;17.058;2023-12-22T05:06:17;4.30;99.10
23271;DHT22;11804;51.118;17.058;2023-12-22T05:08:45;4.30;98.30
23271;DHT22;11804;51.118;17.058;2023-12-22T05:11:13;4.30;97.10
23271;DHT22;11804;51.118;17.058;2023-12-22T05:13:40;4.30;96.90
23271;DHT22;11804;51.118;17.058;2023-12-22T05:16:09;4.30;97.10
23271;DHT22;11804;51.118;17.058;2023-12-22T05:18:37;4.30;97.50
23271;DHT22;11804;51.118;17.058;2023-12-22T05:21:04;4.30;97.90
23271;DHT22;11804;51.118;17.058;2023-12-22T05:23:32;4.30;98.40
23271;DHT22;11804;51.118;17.058;2023-12-22T05:25:59;4.30;98.70
23271;DHT22;11804;51.118;17.058;2023-12-22T05:28:27;4.20;99.60
23271;DHT22;11804;51.118;17.058;2023-12-22T05:30:54;4.20;99.60
23271;DHT22;11804;51.118;17.058;2023-12-22T05:33:22;4.20;99.70
23271;DHT22;11804;51.118;17.058;2023-12-22T05:35:49;4.20;99.90
23271;DHT22;11804;51.118;17.058;2023-12-22T05:38:17;4.30;99.50
23271;DHT22;11804;51.118;17.058;2023-12-22T05:40:45;4.30;99.90
23271;DHT22;11804;51.118;17.058;2023-12-22T05:43:14;4.30;99.90
23271;DHT22;11804;51.118;17.058;2023-12-22T05:45:42;4.20;99.90
23271;DHT22;11804;51.118;17.058;2023-12-22T05:48:10;4.20;99.90
23271;DHT22;11804;51.118;17.058;2023-12-22T05:50:37;4.20;99.90
23271;DHT22;11804;51.118;17.058;2023-12-22T05:53:05;4.30;99.90
23271;DHT22;11804;51.118;17.058;2023-12-22T05:55:32;4.30;99.90
23271;DHT22;11804;51.118;17.058;2023-12-22T05:58:00;4.20;99.90
23271;DHT22;11804;51.118;17.058;2023-12-22T06:00:28;4.30;99.90
23271;DHT22;11804;51.118;17.058;2023-12-22T06:02:55;4.30;99.90
23271;DHT22;11804;51.118;17.058;2023-12-22T06:05:23;4.30;99.90
23271;DHT22;11804;51.118;17.058;2023-12-22T06:07:51;4.30;99.90
23271;DHT22;11804;51.118;17.058;2023-12-22T06:10:18;4.30;99.90
23271;DHT22;11804;51.118;17.058;2023-12-22T06:12:46;4.20;99.90
23271;DHT22;11804;51.118;17.058;2023-12-22T06:15:13;4.20;99.90
23271;DHT22;11804;51.118;17.058;2023-12-22T06:17:41;4.30;99.90
23271;DHT22;11804;51.118;17.058;2023-12-22T06:20:09;4.20;99.90
23271;DHT22;11804;51.118;17.058;2023-12-22T06:22:37;4.20;99.90
23271;DHT22;11804;51.118;17.058;2023-12-22T06:25:05;4.20;99.90
23271;DHT22;11804;51.118;17.058;2023-12-22T06:27:35;4.10;99.90
23271;DHT22;11804;51.118;17.058;2023-12-22T06:30:05;4.20;99.90
23271;DHT22;11804;51.118;17.058;2023-12-22T06:32:33;4.10;99.90
23271;DHT22;11804;51.118;17.058;2023-12-22T06:35:01;4.10;99.90
23271;DHT22;11804;51.118;17.058;2023-12-22T06:37:31;4.00;99.90
23271;DHT22;11804;51.118;17.058;2023-12-22T06:39:59;4.00;99.90
23271;DHT22;11804;51.118;17.058;2023-12-22T06:42:27;4.00;99.90
23271;DHT22;11804;51.118;17.058;2023-12-22T06:44:54;4.00;99.90
23271;DHT22;11804;51.118;17.058;2023-12-22T06:47:22;4.00;99.90
23271;DHT22;11804;51.118;17.058;2023-12-22T06:49:49;3.90;99.90
23271;DHT22;11804;51.118;17.058;2023-12-22T06:52:17;4.00;99.90
23271;DHT22;11804;51.118;17.058;2023-12-22T06:54:44;4.00;99.90
23271;DHT22;11804;51.118;17.058;2023-12-22T06:57:12;3.90;99.90
23271;DHT22;11804;51.118;17.058;2023-12-22T06:59:39;4.00;99.90
23271;DHT22;11804;51.118;17.058;2023-12-22T07:02:07;4.00;99.90
23271;DHT22;11804;51.118;17.058;2023-12-22T07:07:36;4.00;99.90
23271;DHT22;11804;51.118;17.058;2023-12-22T07:10:04;4.00;99.90
23271;DHT22;11804;51.118;17.058;2023-12-22T07:12:32;4.00;99.90
23271;DHT22;11804;51.118;17.058;2023-12-22T07:15:00;4.00;99.90
23271;DHT22;11804;51.118;17.058;2023-12-22T07:17:27;3.90;99.90
23271;DHT22;11804;51.118;17.058;2023-12-22T07:19:59;3.90;99.90
23271;DHT22;11804;51.118;17.058;2023-12-22T07:22:24;3.90;99.90
23271;DHT22;11804;51.118;17.058;2023-12-22T07:24:55;3.90;99.90
23271;DHT22;11804;51.118;17.058;2023-12-22T07:27:22;4.00;99.90
23271;DHT22;11804;51.118;17.058;2023-12-22T07:29:51;4.10;99.90
23271;DHT22;11804;51.118;17.058;2023-12-22T07:32:25;4.10;99.90
23271;DHT22;11804;51.118;17.058;2023-12-22T07:34:52;4.20;99.90
23271;DHT22;11804;51.118;17.058;2023-12-22T07:37:20;4.20;99.90
23271;DHT22;11804;51.118;17.058;2023-12-22T07:39:48;4.30;99.90
23271;DHT22;11804;51.118;17.058;2023-12-22T07:42:15;4.20;99.90
23271;DHT22;11804;51.118;17.058;2023-12-22T07:44:43;4.20;99.90
23271;DHT22;11804;51.118;17.058;2023-12-22T07:47:11;4.20;99.90
23271;DHT22;11804;51.118;17.058;2023-12-22T07:49:38;4.10;99.90
23271;DHT22;11804;51.118;17.058;2023-12-22T07:52:06;4.10;99.90
23271;DHT22;11804;51.118;17.058;2023-12-22T07:54:34;4.10;99.90
23271;DHT22;11804;51.118;17.058;2023-12-22T07:57:01;4.10;99.90
23271;DHT22;11804;51.118;17.058;2023-12-22T07:59:29;4.10;99.90
23271;DHT22;11804;51.118;17.058;2023-12-22T08:01:57;4.20;99.90
23271;DHT22;11804;51.118;17.058;2023-12-22T08:04:24;4.20;99.90
23271;DHT22;11804;51.118;17.058;2023-12-22T08:06:52;4.20;99.90
23271;DHT22;11804;51.118;17.058;2023-12-22T08:09:20;4.20;99.90
23271;DHT22;11804;51.118;17.058;2023-12-22T08:11:49;4.30;99.90
23271;DHT22;11804;51.118;17.058;2023-12-22T08:14:19;4.30;99.90
23271;DHT22;11804;51.118;17.058;2023-12-22T08:16:46;4.30;99.90
23271;DHT22;11804;51.118;17.058;2023-12-22T08:19:14;4.30;99.90
23271;DHT22;11804;51.118;17.058;2023-12-22T08:21:43;4.40;99.90
23271;DHT22;11804;51.118;17.058;2023-12-22T08:24:10;4.40;99.90
23271;DHT22;11804;51.118;17.058;2023-12-22T08:26:38;4.50;99.90
23271;DHT22;11804;51.118;17.058;2023-12-22T08:29:05;4.40;99.90
23271;DHT22;11804;51.118;17.058;2023-12-22T08:31:36;4.30;99.90
23271;DHT22;11804;51.118;17.058;2023-12-22T08:34:04;4.30;99.90
23271;DHT22;11804;51.118;17.058;2023-12-22T08:36:33;4.40;99.90
23271;DHT22;11804;51.118;17.058;2023-12-22T08:39:00;4.40;99.90
23271;DHT22;11804;51.118;17.058;2023-12-22T08:41:28;4.60;99.90
23271;DHT22;11804;51.118;17.058;2023-12-22T08:43:56;4.70;99.90
23271;DHT22;11804;51.118;17.058;2023-12-22T08:46:23;4.60;99.90
23271;DHT22;11804;51.118;17.058;2023-12-22T08:48:53;4.60;99.90
23271;DHT22;11804;51.118;17.058;2023-12-22T08:51:20;4.60;99.90
23271;DHT22;11804;51.118;17.058;2023-12-22T08:53:48;4.50;99.90
23271;DHT22;11804;51.118;17.058;2023-12-22T08:56:16;4.50;99.90
23271;DHT22;11804;51.118;17.058;2023-12-22T08:58:45;4.50;99.90
23271;DHT22;11804;51.118;17.058;2023-12-22T09:01:17;4.50;99.90
23271;DHT22;11804;51.118;17.058;2023-12-22T09:03:45;4.50;99.90
23271;DHT22;11804;51.118;17.058;2023-12-22T09:06:22;4.50;99.90
23271;DHT22;11804;51.118;17.058;2023-12-22T09:08:47;4.50;99.90
23271;DHT22;11804;51.118;17.058;2023-12-22T09:11:18;4.50;99.90
23271;DHT22;11804;51.118;17.058;2023-12-22T09:13:46;4.40;99.90
23271;DHT22;11804;51.118;17.058;2023-12-22T09:16:19;4.20;99.90
23271;DHT22;11804;51.118;17.058;2023-12-22T09:18:43;4.10;99.90
23271;DHT22;11804;51.118;17.058;2023-12-22T09:21:11;4.10;99.90
23271;DHT22;11804;51.118;17.058;2023-12-22T09:23:38;4.10;99.90
23271;DHT22;11804;51.118;17.058;2023-12-22T09:26:06;4.10;99.90
23271;DHT22;11804;51.118;17.058;2023-12-22T09:28:33;4.20;99.90
23271;DHT22;11804;51.118;17.058;2023-12-22T09:31:01;4.20;99.90
23271;DHT22;11804;51.118;17.058;2023-12-22T09:33:32;4.20;99.90
23271;DHT22;11804;51.118;17.058;2023-12-22T09:36:00;4.40;99.90
23271;DHT22;11804;51.118;17.058;2023-12-22T09:38:29;4.50;99.90
23271;DHT22;11804;51.118;17.058;2023-12-22T09:40:57;4.80;99.90
23271;DHT22;11804;51.118;17.058;2023-12-22T09:43:25;5.10;99.90
23271;DHT22;11804;51.118;17.058;2023-12-22T09:45:53;5.20;99.90
23271;DHT22;11804;51.118;17.058;2023-12-22T09:48:22;5.20;99.90
23271;DHT22;11804;51.118;17.058;2023-12-22T09:50:51;5.10;99.90
23271;DHT22;11804;51.118;17.058;2023-12-22T09:53:20;4.90;99.90
23271;DHT22;11804;51.118;17.058;2023-12-22T09:55:49;4.80;99.90
23271;DHT22;11804;51.118;17.058;2023-12-22T09:58:17;4.70;99.90
23271;DHT22;11804;51.118;17.058;2023-12-22T10:00:46;4.60;99.90
23271;DHT22;11804;51.118;17.058;2023-12-22T10:03:15;4.70;99.90
23271;DHT22;11804;51.118;17.058;2023-12-22T10:05:43;4.80;99.90
23271;DHT22;11804;51.118;17.058;2023-12-22T10:08:11;4.80;99.90
23271;DHT22;11804;51.118;17.058;2023-12-22T10:10:40;4.80;99.90
23271;DHT22;11804;51.118;17.058;2023-12-22T10:13:10;4.70;99.90
23271;DHT22;11804;51.118;17.058;2023-12-22T10:15:40;4.80;99.90
23271;DHT22;11804;51.118;17.058;2023-12-22T10:18:09;5.10;99.90
23271;DHT22;11804;51.118;17.058;2023-12-22T10:20:36;5.20;99.90
23271;DHT22;11804;51.118;17.058;2023-12-22T10:23:04;5.20;99.90
23271;DHT22;11804;51.118;17.058;2023-12-22T10:25:32;5.30;99.90
23271;DHT22;11804;51.118;17.058;2023-12-22T10:28:00;5.60;99.90
23271;DHT22;11804;51.118;17.058;2023-12-22T10:30:28;5.50;99.90
23271;DHT22;11804;51.118;17.058;2023-12-22T10:32:56;5.50;99.90
23271;DHT22;11804;51.118;17.058;2023-12-22T10:35:24;5.50;97.90
23271;DHT22;11804;51.118;17.058;2023-12-22T10:37:51;5.60;95.50
23271;DHT22;11804;51.118;17.058;2023-12-22T10:40:21;5.70;95.40
23271;DHT22;11804;51.118;17.058;2023-12-22T10:42:49;5.60;93.60
23271;DHT22;11804;51.118;17.058;2023-12-22T10:45:20;5.80;93.90
23271;DHT22;11804;51.118;17.058;2023-12-22T10:47:50;5.70;93.60
23271;DHT22;11804;51.118;17.058;2023-12-22T10:50:19;5.50;91.20
23271;DHT22;11804;51.118;17.058;2023-12-22T10:52:51;5.70;90.20
23271;DHT22;11804;51.118;17.058;2023-12-22T10:55:18;5.60;88.10
23271;DHT22;11804;51.118;17.058;2023-12-22T10:57:46;5.60;89.00
23271;DHT22;11804;51.118;17.058;2023-12-22T11:00:19;5.50;90.20
23271;DHT22;11804;51.118;17.058;2023-12-22T11:02:48;5.30;90.90
23271;DHT22;11804;51.118;17.058;2023-12-22T11:05:18;5.30;91.80
23271;DHT22;11804;51.118;17.058;2023-12-22T11:07:53;5.20;92.10
23271;DHT22;11804;51.118;17.058;2023-12-22T11:10:22;5.10;92.20
23271;DHT22;11804;51.118;17.058;2023-12-22T11:12:51;5.10;91.90
23271;DHT22;11804;51.118;17.058;2023-12-22T11:15:21;5.10;92.10
23271;DHT22;11804;51.118;17.058;2023-12-22T11:17:52;5.10;92.10
23271;DHT22;11804;51.118;17.058;2023-12-22T11:20:23;5.10;94.20
23271;DHT22;11804;51.118;17.058;2023-12-22T11:22:52;5.00;94.10
23271;DHT22;11804;51.118;17.058;2023-12-22T11:25:20;5.00;94.20
23271;DHT22;11804;51.118;17.058;2023-12-22T11:27:48;5.00;93.20
23271;DHT22;11804;51.118;17.058;2023-12-22T11:30:19;5.00;93.90
23271;DHT22;11804;51.118;17.058;2023-12-22T11:32:49;5.10;94.50
23271;DHT22;11804;51.118;17.058;2023-12-22T11:35:17;5.10;94.30
23271;DHT22;11804;51.118;17.058;2023-12-22T11:37:46;5.10;93.40
23271;DHT22;11804;51.118;17.058;2023-12-22T11:40:14;5.20;94.00
23271;DHT22;11804;51.118;17.058;2023-12-22T11:42:47;5.30;93.00
23271;DHT22;11804;51.118;17.058;2023-12-22T11:45:15;5.40;92.90
23271;DHT22;11804;51.118;17.058;2023-12-22T11:47:46;5.50;90.80
23271;DHT22;11804;51.118;17.058;2023-12-22T11:50:32;5.50;90.10
23271;DHT22;11804;51.118;17.058;2023-12-22T11:52:57;5.40;89.40
23271;DHT22;11804;51.118;17.058;2023-12-22T11:58:34;5.40;88.30
23271;DHT22;11804;51.118;17.058;2023-12-22T12:01:05;5.50;86.30
23271;DHT22;11804;51.118;17.058;2023-12-22T12:03:32;5.50;86.10
23271;DHT22;11804;51.118;17.058;2023-12-22T12:06:16;5.60;84.10
23271;DHT22;11804;51.118;17.058;2023-12-22T12:08:45;5.60;81.50
23271;DHT22;11804;51.118;17.058;2023-12-22T12:11:12;5.60;79.30
23271;DHT22;11804;51.118;17.058;2023-12-22T12:13:42;5.70;78.90
23271;DHT22;11804;51.118;17.058;2023-12-22T12:16:15;5.80;78.70
23271;DHT22;11804;51.118;17.058;2023-12-22T12:18:45;5.70;78.50
23271;DHT22;11804;51.118;17.058;2023-12-22T12:21:13;5.80;78.20
23271;DHT22;11804;51.118;17.058;2023-12-22T12:23:42;5.70;76.50
23271;DHT22;11804;51.118;17.058;2023-12-22T12:26:11;5.70;78.10
23271;DHT22;11804;51.118;17.058;2023-12-22T12:28:41;5.70;77.70
23271;DHT22;11804;51.118;17.058;2023-12-22T12:31:10;5.60;76.80
23271;DHT22;11804;51.118;17.058;2023-12-22T12:33:37;5.60;76.60
23271;DHT22;11804;51.118;17.058;2023-12-22T12:36:06;5.50;76.20
23271;DHT22;11804;51.118;17.058;2023-12-22T12:41:25;5.50;76.00
23271;DHT22;11804;51.118;17.058;2023-12-22T12:43:52;5.60;75.50
23271;DHT22;11804;51.118;17.058;2023-12-22T12:46:20;5.50;75.60
23271;DHT22;11804;51.118;17.058;2023-12-22T12:48:47;5.40;75.90
23271;DHT22;11804;51.118;17.058;2023-12-22T12:51:15;5.50;75.60
23271;DHT22;11804;51.118;17.058;2023-12-22T12:53:43;5.50;75.80
23271;DHT22;11804;51.118;17.058;2023-12-22T12:56:10;5.50;76.00
23271;DHT22;11804;51.118;17.058;2023-12-22T12:58:39;5.50;75.90
23271;DHT22;11804;51.118;17.058;2023-12-22T13:01:08;5.60;75.50
23271;DHT22;11804;51.118;17.058;2023-12-22T13:03:57;5.70;75.00
23271;DHT22;11804;51.118;17.058;2023-12-22T13:06:25;5.70;74.50
23271;DHT22;11804;51.118;17.058;2023-12-22T13:08:53;5.60;74.00
23271;DHT22;11804;51.118;17.058;2023-12-22T13:11:21;5.60;74.20
23271;DHT22;11804;51.118;17.058;2023-12-22T13:13:49;5.50;74.30
23271;DHT22;11804;51.118;17.058;2023-12-22T13:16:19;5.50;73.60
23271;DHT22;11804;51.118;17.058;2023-12-22T13:18:47;5.50;73.90
23271;DHT22;11804;51.118;17.058;2023-12-22T13:21:15;5.50;73.50
23271;DHT22;11804;51.118;17.058;2023-12-22T13:23:43;5.50;73.80
23271;DHT22;11804;51.118;17.058;2023-12-22T13:26:20;5.50;73.30
23271;DHT22;11804;51.118;17.058;2023-12-22T13:28:48;5.50;73.50
23271;DHT22;11804;51.118;17.058;2023-12-22T13:31:16;5.50;72.10
23271;DHT22;11804;51.118;17.058;2023-12-22T13:33:45;5.50;72.80
23271;DHT22;11804;51.118;17.058;2023-12-22T13:36:13;5.50;72.70
23271;DHT22;11804;51.118;17.058;2023-12-22T13:38:46;5.50;72.60
23271;DHT22;11804;51.118;17.058;2023-12-22T13:41:17;5.50;73.10
23271;DHT22;11804;51.118;17.058;2023-12-22T13:43:47;5.40;74.20
23271;DHT22;11804;51.118;17.058;2023-12-22T13:46:15;5.40;73.20
23271;DHT22;11804;51.118;17.058;2023-12-22T13:48:45;5.30;73.50
23271;DHT22;11804;51.118;17.058;2023-12-22T13:51:12;5.30;73.90
23271;DHT22;11804;51.118;17.058;2023-12-22T13:53:50;5.30;74.10
23271;DHT22;11804;51.118;17.058;2023-12-22T13:56:17;5.20;74.60
23271;DHT22;11804;51.118;17.058;2023-12-22T13:58:47;5.20;75.50
23271;DHT22;11804;51.118;17.058;2023-12-22T14:01:16;5.20;76.30
23271;DHT22;11804;51.118;17.058;2023-12-22T14:03:44;5.20;76.60
23271;DHT22;11804;51.118;17.058;2023-12-22T14:06:14;5.20;77.60
23271;DHT22;11804;51.118;17.058;2023-12-22T14:08:43;5.10;77.30
23271;DHT22;11804;51.118;17.058;2023-12-22T14:11:10;5.10;77.60
23271;DHT22;11804;51.118;17.058;2023-12-22T14:13:38;5.10;77.80
23271;DHT22;11804;51.118;17.058;2023-12-22T14:16:07;5.00;76.70
23271;DHT22;11804;51.118;17.058;2023-12-22T14:18:35;5.10;76.10
23271;DHT22;11804;51.118;17.058;2023-12-22T14:21:03;5.10;76.10
23271;DHT22;11804;51.118;17.058;2023-12-22T14:23:32;5.00;75.50
23271;DHT22;11804;51.118;17.058;2023-12-22T14:25:59;5.10;74.70
23271;DHT22;11804;51.118;17.058;2023-12-22T14:28:27;5.10;74.70
23271;DHT22;11804;51.118;17.058;2023-12-22T14:30:55;5.10;75.20
23271;DHT22;11804;51.118;17.058;2023-12-22T14:33:22;5.10;74.70
23271;DHT22;11804;51.118;17.058;2023-12-22T14:35:50;5.10;75.70
23271;DHT22;11804;51.118;17.058;2023-12-22T14:38:18;5.00;75.50
23271;DHT22;11804;51.118;17.058;2023-12-22T14:40:46;5.00;75.70
23271;DHT22;11804;51.118;17.058;2023-12-22T14:43:14;5.00;76.10
23271;DHT22;11804;51.118;17.058;2023-12-22T14:45:41;5.00;76.30
23271;DHT22;11804;51.118;17.058;2023-12-22T14:48:09;4.90;76.70
23271;DHT22;11804;51.118;17.058;2023-12-22T14:50:37;4.90;75.80
23271;DHT22;11804;51.118;17.058;2023-12-22T14:53:05;4.90;76.40
23271;DHT22;11804;51.118;17.058;2023-12-22T14:55:33;4.90;76.40
23271;DHT22;11804;51.118;17.058;2023-12-22T14:58:01;4.80;76.50
23271;DHT22;11804;51.118;17.058;2023-12-22T15:00:29;4.80;76.60
23271;DHT22;11804;51.118;17.058;2023-12-22T15:02:57;4.80;77.30
23271;DHT22;11804;51.118;17.058;2023-12-22T15:05:25;4.70;77.60
23271;DHT22;11804;51.118;17.058;2023-12-22T15:07:54;4.70;76.90
23271;DHT22;11804;51.118;17.058;2023-12-22T15:10:22;4.70;77.60
23271;DHT22;11804;51.118;17.058;2023-12-22T15:12:49;4.70;77.70
23271;DHT22;11804;51.118;17.058;2023-12-22T15:15:17;4.70;78.20
23271;DHT22;11804;51.118;17.058;2023-12-22T15:17:45;4.70;78.50
23271;DHT22;11804;51.118;17.058;2023-12-22T15:20:14;4.60;78.50
23271;DHT22;11804;51.118;17.058;2023-12-22T15:22:41;4.60;78.60
23271;DHT22;11804;51.118;17.058;2023-12-22T15:25:09;4.70;77.10
23271;DHT22;11804;51.118;17.058;2023-12-22T15:27:36;4.60;76.70
23271;DHT22;11804;51.118;17.058;2023-12-22T15:30:06;4.60;77.80
23271;DHT22;11804;51.118;17.058;2023-12-22T15:32:34;4.60;77.70
23271;DHT22;11804;51.118;17.058;2023-12-22T15:35:01;4.60;78.00
23271;DHT22;11804;51.118;17.058;2023-12-22T15:37:29;4.50;78.50
23271;DHT22;11804;51.118;17.058;2023-12-22T15:39:57;4.50;78.50
23271;DHT22;11804;51.118;17.058;2023-12-22T15:42:25;4.40;79.40
23271;DHT22;11804;51.118;17.058;2023-12-22T15:44:52;4.40;80.60